PWSweather.com
Personal Weather Stations
Station Observations
PENICUIKWS
PenicuikGB

PenicuikGB

Lat: 55.830932, Lon: -3.224533000000065

Elevation: 166

Station Type: Fine Offset

http://weather.penicuik.org

High Low Average
Temperature 47.8°F8.8°C 34.5°F1.4°C 41.3°F5.2°C
Dew Point 43.9°F6.6°C 30.2°F-1.0°C 37.0°F2.8°C
Winds 9.3 mph 15.0 kmh 0.2 mph 0.3 kmh 3.0 mph SW4.8 kmh SW
Wind Gusts 15.2 mph24.5 kmh 1.6 mph2.6 kmh 6.0 mph9.7 kmh
Humidity 90% 75% 85%
Pressure 29.33 in993.2 mb 29.03 in983.1 mb -
Precipitation 0.11 in2.8 mm - -
Hour Temp Dew Point Humidity Winds Wind Gusts Pressure Precip Precip Rate Daily Precip Total
12:00 AM 44.4°F6.9°C 40.2°F4.6°C 85% 9.3 mph SW15.0 kmh SW 13.0 mph20.9 kmh 29.33 in993.2 mb 0.00 in0.0 mm 0.00 in0.0 mm 0.00 in0.0 mm
12:15 AM 44.6°F7.0°C 40.1°F4.5°C 84% 8.2 mph NE13.2 kmh NE 13.6 mph21.9 kmh 29.32 in992.9 mb 0.00 in0.0 mm 0.00 in0.0 mm 0.00 in0.0 mm
12:30 AM 44.8°F7.1°C 40.6°F4.8°C 85% 4.8 mph WNW7.7 kmh WNW 9.2 mph14.8 kmh 29.31 in992.6 mb 0.00 in0.0 mm 0.00 in0.0 mm 0.00 in0.0 mm
12:45 AM 45.1°F7.3°C 40.9°F4.9°C 85% 6.8 mph NNW10.9 kmh NNW 15.2 mph24.5 kmh 29.30 in992.2 mb 0.00 in0.0 mm 0.00 in0.0 mm 0.00 in0.0 mm
01:15 AM 45.7°F7.6°C 42.0°F5.6°C 87% 4.7 mph W7.6 kmh W 9.8 mph15.8 kmh 29.28 in991.5 mb 0.00 in0.0 mm 0.00 in0.0 mm 0.00 in0.0 mm
01:30 AM 46.0°F7.8°C 42.7°F5.9°C 88% 5.0 mph NW8.0 kmh NW 7.6 mph12.2 kmh 29.28 in991.5 mb 0.00 in0.0 mm 0.00 in0.0 mm 0.00 in0.0 mm
01:45 AM 46.0°F7.8°C 42.7°F5.9°C 88% 3.0 mph W4.8 kmh W 7.6 mph12.2 kmh 29.28 in991.5 mb 0.00 in0.0 mm 0.00 in0.0 mm 0.00 in0.0 mm
02:00 AM 46.2°F7.9°C 42.9°F6.1°C 88% 3.6 mph SE5.8 kmh SE 6.0 mph9.7 kmh 29.27 in991.2 mb 0.01 in0.3 mm 0.01 in0.3 mm 0.01 in0.3 mm
02:15 AM 46.4°F8.0°C 43.0°F6.1°C 88% 3.5 mph NW5.6 kmh NW 8.3 mph13.4 kmh 29.27 in991.2 mb 0.01 in0.3 mm 0.00 in0.0 mm 0.01 in0.3 mm
02:30 AM 46.4°F8.0°C 43.3°F6.3°C 89% 3.5 mph N5.6 kmh N 5.4 mph8.7 kmh 29.26 in990.9 mb 0.01 in0.3 mm 0.00 in0.0 mm 0.01 in0.3 mm
02:45 AM 46.2°F7.9°C 43.2°F6.2°C 89% 3.3 mph NW5.3 kmh NW 6.0 mph9.7 kmh 29.24 in990.2 mb 0.01 in0.3 mm 0.00 in0.0 mm 0.01 in0.3 mm
03:00 AM 46.4°F8.0°C 43.6°F6.4°C 90% 3.6 mph WSW5.8 kmh WSW 6.0 mph9.7 kmh 29.24 in990.2 mb 0.00 in0.0 mm 0.00 in0.0 mm 0.01 in0.3 mm
03:15 AM 46.4°F8.0°C 43.6°F6.4°C 90% 3.8 mph W6.1 kmh W 6.9 mph11.1 kmh 29.24 in990.2 mb 0.01 in0.3 mm 0.04 in1.0 mm 0.02 in0.5 mm
03:45 AM 46.0°F7.8°C 43.0°F6.1°C 89% 3.4 mph S5.5 kmh S 5.4 mph8.7 kmh 29.22 in989.5 mb 0.01 in0.3 mm 0.00 in0.0 mm 0.02 in0.5 mm
04:00 AM 46.0°F7.8°C 43.0°F6.1°C 89% 3.3 mph SW5.3 kmh SW 5.4 mph8.7 kmh 29.23 in989.8 mb 0.01 in0.3 mm 0.00 in0.0 mm 0.02 in0.5 mm
04:15 AM 46.0°F7.8°C 43.0°F6.1°C 89% 2.1 mph WNW3.4 kmh WNW 3.8 mph6.1 kmh 29.21 in989.2 mb 0.00 in0.0 mm 0.00 in0.0 mm 0.02 in0.5 mm
04:30 AM 45.9°F7.7°C 42.8°F6.0°C 89% 2.9 mph N4.7 kmh N 4.5 mph7.2 kmh 29.21 in989.2 mb 0.00 in0.0 mm 0.00 in0.0 mm 0.02 in0.5 mm
04:45 AM 45.9°F7.7°C 42.8°F6.0°C 89% 2.9 mph NW4.7 kmh NW 3.8 mph6.1 kmh 29.21 in989.2 mb 0.00 in0.0 mm 0.00 in0.0 mm 0.02 in0.5 mm
05:00 AM 45.3°F7.4°C 42.0°F5.6°C 88% 2.6 mph N4.2 kmh N 4.5 mph7.2 kmh 29.21 in989.2 mb 0.00 in0.0 mm 0.00 in0.0 mm 0.02 in0.5 mm
05:15 AM 45.0°F7.2°C 41.6°F5.3°C 88% 2.7 mph SW4.3 kmh SW 5.4 mph8.7 kmh 29.21 in989.2 mb 0.00 in0.0 mm 0.00 in0.0 mm 0.02 in0.5 mm
05:30 AM 44.6°F7.0°C 41.3°F5.2°C 88% 2.5 mph SW4.0 kmh SW 4.5 mph7.2 kmh 29.20 in988.8 mb 0.00 in0.0 mm 0.00 in0.0 mm 0.02 in0.5 mm
05:45 AM 44.4°F6.9°C 41.4°F5.2°C 89% 3.5 mph NNE5.6 kmh NNE 6.0 mph9.7 kmh 29.20 in988.8 mb 0.00 in0.0 mm 0.00 in0.0 mm 0.02 in0.5 mm
06:00 AM 44.2°F6.8°C 40.9°F4.9°C 88% 3.2 mph SSW5.1 kmh SSW 6.0 mph9.7 kmh 29.20 in988.8 mb 0.00 in0.0 mm 0.00 in0.0 mm 0.02 in0.5 mm
06:15 AM 44.1°F6.7°C 40.7°F4.8°C 88% 3.0 mph S4.8 kmh S 4.5 mph7.2 kmh 29.20 in988.8 mb 0.00 in0.0 mm 0.00 in0.0 mm 0.02 in0.5 mm
06:45 AM 43.7°F6.5°C 40.4°F4.7°C 88% 2.1 mph SW3.4 kmh SW 4.5 mph7.2 kmh 29.19 in988.5 mb 0.02 in0.5 mm 0.04 in1.0 mm 0.05 in1.3 mm
07:00 AM 43.5°F6.4°C 40.5°F4.7°C 89% 0.2 mph ENE0.3 kmh ENE 1.6 mph2.6 kmh 29.20 in988.8 mb 0.04 in1.0 mm 0.03 in0.8 mm 0.06 in1.5 mm
07:15 AM 43.3°F6.3°C 40.3°F4.6°C 89% 0.9 mph SE1.4 kmh SE 2.2 mph3.5 kmh 29.18 in988.1 mb 0.04 in1.0 mm 0.00 in0.0 mm 0.06 in1.5 mm
07:30 AM 42.6°F5.9°C 39.9°F4.4°C 90% 2.1 mph S3.4 kmh S 3.8 mph6.1 kmh 29.19 in988.5 mb 0.02 in0.5 mm 0.00 in0.0 mm 0.06 in1.5 mm
07:45 AM 42.3°F5.7°C 39.5°F4.2°C 90% 1.0 mph SSE1.6 kmh SSE 1.6 mph2.6 kmh 29.19 in988.5 mb 0.02 in0.5 mm 0.00 in0.0 mm 0.07 in1.8 mm
08:00 AM 41.9°F5.5°C 39.2°F4.0°C 90% 1.1 mph SSW1.8 kmh SSW 3.1 mph5.0 kmh 29.18 in988.1 mb 0.01 in0.3 mm 0.00 in0.0 mm 0.07 in1.8 mm
08:15 AM 41.7°F5.4°C 39.0°F3.9°C 90% 1.4 mph S2.3 kmh S 3.1 mph5.0 kmh 29.18 in988.1 mb 0.01 in0.3 mm 0.00 in0.0 mm 0.07 in1.8 mm
08:30 AM 41.7°F5.4°C 39.0°F3.9°C 90% 2.6 mph SSE4.2 kmh SSE 4.5 mph7.2 kmh 29.18 in988.1 mb 0.01 in0.3 mm 0.00 in0.0 mm 0.07 in1.8 mm
08:45 AM 41.9°F5.5°C 39.2°F4.0°C 90% 2.1 mph SW3.4 kmh SW 5.4 mph8.7 kmh 29.18 in988.1 mb 0.00 in0.0 mm 0.00 in0.0 mm 0.07 in1.8 mm
09:00 AM 41.2°F5.1°C 38.5°F3.6°C 90% 1.0 mph WSW1.6 kmh WSW 3.8 mph6.1 kmh 29.18 in988.1 mb 0.00 in0.0 mm 0.00 in0.0 mm 0.07 in1.8 mm
09:30 AM 39.2°F4.0°C 36.5°F2.5°C 90% 0.7 mph NW1.1 kmh NW 2.2 mph3.5 kmh 29.16 in987.5 mb 0.00 in0.0 mm 0.00 in0.0 mm 0.07 in1.8 mm
09:45 AM 40.1°F4.5°C 37.4°F3.0°C 90% 1.3 mph WNW2.1 kmh WNW 3.8 mph6.1 kmh 29.16 in987.5 mb 0.00 in0.0 mm 0.00 in0.0 mm 0.07 in1.8 mm
10:00 AM 42.6°F5.9°C 39.9°F4.4°C 90% 0.9 mph S1.4 kmh S 3.1 mph5.0 kmh 29.15 in987.1 mb 0.00 in0.0 mm 0.00 in0.0 mm 0.07 in1.8 mm
10:15 AM 47.8°F8.8°C 43.9°F6.6°C 86% 3.2 mph S5.1 kmh S 4.5 mph7.2 kmh 29.15 in987.1 mb 0.00 in0.0 mm 0.00 in0.0 mm 0.07 in1.8 mm
10:30 AM 47.7°F8.7°C 40.1°F4.5°C 75% 3.6 mph S5.8 kmh S 5.4 mph8.7 kmh 29.15 in987.1 mb 0.00 in0.0 mm 0.00 in0.0 mm 0.07 in1.8 mm
11:00 AM 43.5°F6.4°C 38.1°F3.4°C 81% 1.2 mph NW1.9 kmh NW 2.2 mph3.5 kmh 29.14 in986.8 mb 0.00 in0.0 mm 0.00 in0.0 mm 0.07 in1.8 mm
11:15 AM 43.3°F6.3°C 38.5°F3.6°C 83% 2.9 mph SE4.7 kmh SE 4.5 mph7.2 kmh 29.14 in986.8 mb 0.00 in0.0 mm 0.00 in0.0 mm 0.07 in1.8 mm
11:45 AM 43.3°F6.3°C 38.5°F3.6°C 83% 3.1 mph SSE5.0 kmh SSE 6.0 mph9.7 kmh 29.14 in986.8 mb 0.00 in0.0 mm 0.00 in0.0 mm 0.07 in1.8 mm
12:00 PM 43.5°F6.4°C 38.1°F3.4°C 81% 3.4 mph NE5.5 kmh NE 5.4 mph8.7 kmh 29.13 in986.5 mb 0.00 in0.0 mm 0.00 in0.0 mm 0.07 in1.8 mm
12:15 PM 43.2°F6.2°C 37.4°F3.0°C 80% 3.3 mph SSE5.3 kmh SSE 4.5 mph7.2 kmh 29.12 in986.1 mb 0.00 in0.0 mm 0.00 in0.0 mm 0.07 in1.8 mm
12:30 PM 43.3°F6.3°C 37.3°F2.9°C 79% 2.9 mph SSW4.7 kmh SSW 5.4 mph8.7 kmh 29.12 in986.1 mb 0.00 in0.0 mm 0.00 in0.0 mm 0.07 in1.8 mm
12:45 PM 43.3°F6.3°C 37.3°F2.9°C 79% 4.5 mph SW7.2 kmh SW 9.8 mph15.8 kmh 29.11 in985.8 mb 0.00 in0.0 mm 0.00 in0.0 mm 0.07 in1.8 mm
01:15 PM 43.0°F6.1°C 36.3°F2.4°C 77% 4.2 mph SE6.8 kmh SE 5.4 mph8.7 kmh 29.10 in985.4 mb 0.00 in0.0 mm 0.00 in0.0 mm 0.07 in1.8 mm
01:30 PM 42.1°F5.6°C 36.0°F2.2°C 79% 3.7 mph S6.0 kmh S 7.6 mph12.2 kmh 29.10 in985.4 mb 0.00 in0.0 mm 0.00 in0.0 mm 0.07 in1.8 mm
01:45 PM 41.9°F5.5°C 35.2°F1.8°C 77% 4.1 mph SE6.6 kmh SE 9.2 mph14.8 kmh 29.09 in985.1 mb 0.00 in0.0 mm 0.00 in0.0 mm 0.07 in1.8 mm
02:15 PM 41.7°F5.4°C 34.7°F1.5°C 76% 6.9 mph SW11.1 kmh SW 13.0 mph20.9 kmh 29.09 in985.1 mb 0.00 in0.0 mm 0.00 in0.0 mm 0.07 in1.8 mm
02:30 PM 41.4°F5.2°C 34.0°F1.1°C 75% 4.7 mph SSW7.6 kmh SSW 6.9 mph11.1 kmh 29.10 in985.4 mb 0.00 in0.0 mm 0.00 in0.0 mm 0.07 in1.8 mm
02:45 PM 41.0°F5.0°C 33.7°F0.9°C 75% 3.6 mph SSW5.8 kmh SSW 10.7 mph17.2 kmh 29.09 in985.1 mb 0.00 in0.0 mm 0.00 in0.0 mm 0.07 in1.8 mm
03:00 PM 40.1°F4.5°C 33.2°F0.7°C 76% 4.1 mph SSW6.6 kmh SSW 6.0 mph9.7 kmh 29.09 in985.1 mb 0.00 in0.0 mm 0.00 in0.0 mm 0.07 in1.8 mm
03:15 PM 39.9°F4.4°C 33.0°F0.6°C 76% 3.4 mph WNW5.5 kmh WNW 6.9 mph11.1 kmh 29.08 in984.8 mb 0.00 in0.0 mm 0.00 in0.0 mm 0.07 in1.8 mm
03:30 PM 39.7°F4.3°C 32.8°F0.4°C 76% 4.1 mph SW6.6 kmh SW 7.6 mph12.2 kmh 29.07 in984.4 mb 0.00 in0.0 mm 0.00 in0.0 mm 0.07 in1.8 mm
03:45 PM 39.7°F4.3°C 33.1°F0.6°C 77% 5.1 mph SW8.2 kmh SW 8.3 mph13.4 kmh 29.08 in984.8 mb 0.00 in0.0 mm 0.00 in0.0 mm 0.07 in1.8 mm
04:00 PM 39.0°F3.9°C 33.1°F0.6°C 79% 4.6 mph SSW7.4 kmh SSW 8.3 mph13.4 kmh 29.08 in984.8 mb 0.00 in0.0 mm 0.00 in0.0 mm 0.07 in1.8 mm
04:30 PM 38.8°F3.8°C 32.6°F0.3°C 78% 4.5 mph S7.2 kmh S 6.9 mph11.1 kmh 29.08 in984.8 mb 0.00 in0.0 mm 0.00 in0.0 mm 0.07 in1.8 mm
04:45 PM 38.1°F3.4°C 32.5°F0.3°C 80% 2.9 mph S4.7 kmh S 4.5 mph7.2 kmh 29.09 in985.1 mb 0.01 in0.3 mm 0.04 in1.0 mm 0.08 in2.0 mm
05:00 PM 36.7°F2.6°C 30.5°F-0.8°C 78% 1.9 mph WNW3.1 kmh WNW 3.1 mph5.0 kmh 29.08 in984.8 mb 0.02 in0.5 mm 0.01 in0.3 mm 0.09 in2.3 mm
05:15 PM 36.7°F2.6°C 31.1°F-0.5°C 80% 3.5 mph S5.6 kmh S 7.6 mph12.2 kmh 29.07 in984.4 mb 0.02 in0.5 mm 0.00 in0.0 mm 0.09 in2.3 mm
05:45 PM 37.2°F2.9°C 32.2°F0.1°C 82% 2.2 mph SSW3.5 kmh SSW 3.8 mph6.1 kmh 29.07 in984.4 mb 0.01 in0.3 mm 0.00 in0.0 mm 0.09 in2.3 mm
06:00 PM 36.9°F2.7°C 31.9°F-0.1°C 82% 1.6 mph SW2.6 kmh SW 3.8 mph6.1 kmh 29.07 in984.4 mb 0.00 in0.0 mm 0.00 in0.0 mm 0.09 in2.3 mm
06:45 PM 36.5°F2.5°C 31.8°F-0.1°C 83% 2.7 mph W4.3 kmh W 3.8 mph6.1 kmh 29.06 in984.1 mb 0.00 in0.0 mm 0.00 in0.0 mm 0.09 in2.3 mm
07:00 PM 36.3°F2.4°C 31.7°F-0.2°C 83% 2.3 mph SSE3.7 kmh SSE 3.8 mph6.1 kmh 29.05 in983.7 mb 0.00 in0.0 mm 0.00 in0.0 mm 0.09 in2.3 mm
07:30 PM 35.2°F1.8°C 31.2°F-0.4°C 85% 1.7 mph WSW2.7 kmh WSW 2.2 mph3.5 kmh 29.05 in983.7 mb 0.00 in0.0 mm 0.00 in0.0 mm 0.09 in2.3 mm
07:45 PM 35.2°F1.8°C 31.2°F-0.4°C 85% 1.1 mph SSE1.8 kmh SSE 3.1 mph5.0 kmh 29.05 in983.7 mb 0.00 in0.0 mm 0.00 in0.0 mm 0.09 in2.3 mm
08:00 PM 35.2°F1.8°C 31.2°F-0.4°C 85% 1.8 mph WSW2.9 kmh WSW 3.8 mph6.1 kmh 29.05 in983.7 mb 0.00 in0.0 mm 0.00 in0.0 mm 0.09 in2.3 mm
08:15 PM 35.2°F1.8°C 31.5°F-0.3°C 86% 1.4 mph SSW2.3 kmh SSW 3.1 mph5.0 kmh 29.05 in983.7 mb 0.01 in0.3 mm 0.04 in1.0 mm 0.11 in2.8 mm
08:30 PM 35.2°F1.8°C 31.5°F-0.3°C 86% 2.1 mph ENE3.4 kmh ENE 3.8 mph6.1 kmh 29.04 in983.4 mb 0.01 in0.3 mm 0.00 in0.0 mm 0.11 in2.8 mm
08:45 PM 35.1°F1.7°C 31.3°F-0.4°C 86% 1.6 mph SSW2.6 kmh SSW 3.1 mph5.0 kmh 29.04 in983.4 mb 0.01 in0.3 mm 0.00 in0.0 mm 0.11 in2.8 mm
09:00 PM 35.1°F1.7°C 31.6°F-0.2°C 87% 2.1 mph WSW3.4 kmh WSW 3.1 mph5.0 kmh 29.03 in983.1 mb 0.01 in0.3 mm 0.00 in0.0 mm 0.11 in2.8 mm
09:15 PM 35.1°F1.7°C 31.6°F-0.2°C 87% 2.5 mph NNW4.0 kmh NNW 3.8 mph6.1 kmh 29.03 in983.1 mb 0.00 in0.0 mm 0.00 in0.0 mm 0.11 in2.8 mm
09:30 PM 35.1°F1.7°C 31.6°F-0.2°C 87% 4.6 mph SW7.4 kmh SW 8.3 mph13.4 kmh 29.03 in983.1 mb 0.00 in0.0 mm 0.00 in0.0 mm 0.11 in2.8 mm
09:45 PM 35.1°F1.7°C 31.6°F-0.2°C 87% 3.1 mph W5.0 kmh W 5.4 mph8.7 kmh 29.03 in983.1 mb 0.00 in0.0 mm 0.00 in0.0 mm 0.11 in2.8 mm
10:00 PM 34.9°F1.6°C 31.4°F-0.3°C 87% 2.9 mph WSW4.7 kmh WSW 6.0 mph9.7 kmh 29.04 in983.4 mb 0.00 in0.0 mm 0.00 in0.0 mm 0.11 in2.8 mm
10:15 PM 34.9°F1.6°C 31.4°F-0.3°C 87% 2.9 mph SW4.7 kmh SW 6.0 mph9.7 kmh 29.03 in983.1 mb 0.00 in0.0 mm 0.00 in0.0 mm 0.11 in2.8 mm
10:45 PM 34.5°F1.4°C 30.5°F-0.8°C 85% 3.6 mph S5.8 kmh S 6.0 mph9.7 kmh 29.03 in983.1 mb 0.00 in0.0 mm 0.00 in0.0 mm 0.11 in2.8 mm
11:00 PM 34.5°F1.4°C 30.2°F-1.0°C 84% 2.7 mph SSW4.3 kmh SSW 6.0 mph9.7 kmh 29.03 in983.1 mb 0.00 in0.0 mm 0.00 in0.0 mm 0.11 in2.8 mm
11:15 PM 34.9°F1.6°C 30.6°F-0.8°C 84% 2.8 mph S4.5 kmh S 4.5 mph7.2 kmh 29.04 in983.4 mb 0.00 in0.0 mm 0.00 in0.0 mm 0.11 in2.8 mm
11:30 PM 35.1°F1.7°C 30.7°F-0.7°C 84% 2.4 mph WSW3.9 kmh WSW 4.5 mph7.2 kmh 29.03 in983.1 mb 0.00 in0.0 mm 0.00 in0.0 mm 0.11 in2.8 mm